createdAt,value
2023-05-15T00:01:05.665Z,13.57
2023-05-15T00:03:35.491Z,11.38
2023-05-15T00:06:06.878Z,12.73
2023-05-15T00:08:37.713Z,8.85
2023-05-15T00:11:07.974Z,8.13
2023-05-15T00:13:39.710Z,8.82
2023-05-15T00:16:10.674Z,14.00
2023-05-15T00:18:42.507Z,14.05
2023-05-15T00:21:14.626Z,6.55
2023-05-15T00:23:44.932Z,10.07
2023-05-15T00:26:16.913Z,12.73
2023-05-15T00:28:47.502Z,5.35
2023-05-15T00:31:18.853Z,10.55
2023-05-15T00:33:49.704Z,9.25
2023-05-15T00:36:19.578Z,6.50
2023-05-15T00:38:50.933Z,9.93
2023-05-15T00:41:24.203Z,4.32
2023-05-15T00:43:56.865Z,5.97
2023-05-15T00:46:30.036Z,6.90
2023-05-15T00:49:02.066Z,9.52
2023-05-15T00:51:35.726Z,5.65
2023-05-15T00:54:07.087Z,16.27
2023-05-15T00:56:38.637Z,8.75
2023-05-15T00:59:09.782Z,10.73
2023-05-15T01:01:42.485Z,4.88
2023-05-15T01:04:13.074Z,5.30
2023-05-15T01:06:43.457Z,3.47
2023-05-15T01:09:16.346Z,6.35
2023-05-15T01:11:51.861Z,9.50
2023-05-15T01:14:21.979Z,12.40
2023-05-15T01:16:53.168Z,6.88
2023-05-15T01:19:24.137Z,6.88
2023-05-15T01:22:18.876Z,5.90
2023-05-15T01:24:48.928Z,7.40
2023-05-15T01:30:12.969Z,7.32
2023-05-15T01:32:57.448Z,7.75
2023-05-15T01:35:43.965Z,7.60
2023-05-15T01:38:32.511Z,5.60
2023-05-15T01:41:27.501Z,5.35
2023-05-15T01:44:37.590Z,4.22
2023-05-15T01:47:22.644Z,7.28
2023-05-15T01:49:54.775Z,6.18
2023-05-15T01:52:48.546Z,4.43
2023-05-15T01:55:22.201Z,6.03
2023-05-15T01:57:54.198Z,5.25
2023-05-15T02:00:24.669Z,5.78
2023-05-15T02:02:56.567Z,6.95
2023-05-15T02:05:28.606Z,4.05
2023-05-15T02:07:59.484Z,4.75
2023-05-15T02:10:30.344Z,5.15
2023-05-15T02:13:03.131Z,5.28
2023-05-15T02:15:34.228Z,6.50
2023-05-15T02:18:04.354Z,7.25
2023-05-15T02:20:34.264Z,3.60
2023-05-15T02:23:04.938Z,5.60
2023-05-15T02:26:16.858Z,4.90
2023-05-15T02:28:56.813Z,5.97
2023-05-15T02:31:52.839Z,8.07
2023-05-15T02:34:43.334Z,6.75
2023-05-15T02:37:20.794Z,6.30
2023-05-15T02:39:55.688Z,4.93
2023-05-15T02:42:26.895Z,4.68
2023-05-15T02:44:58.495Z,4.60
2023-05-15T02:47:31.813Z,6.72
2023-05-15T02:50:04.206Z,4.25
2023-05-15T02:52:37.422Z,3.92
2023-05-15T02:55:09.441Z,4.43
2023-05-15T02:57:40.082Z,7.95
2023-05-15T03:00:12.960Z,7.78
2023-05-15T03:02:44.200Z,5.75
2023-05-15T03:05:15.232Z,8.98
2023-05-15T03:07:46.441Z,6.95
2023-05-15T03:10:16.982Z,5.20
2023-05-15T03:12:48.436Z,4.10
2023-05-15T03:15:19.406Z,5.07
2023-05-15T03:17:49.602Z,7.60
2023-05-15T03:20:19.949Z,6.78
2023-05-15T03:22:50.916Z,4.22
2023-05-15T03:25:22.351Z,6.55
2023-05-15T03:27:53.233Z,4.97
2023-05-15T03:30:23.462Z,4.30
2023-05-15T03:35:28.153Z,4.38
2023-05-15T03:37:58.352Z,4.75
2023-05-15T03:40:28.964Z,5.30
2023-05-15T03:43:00.659Z,3.83
2023-05-15T03:45:31.740Z,3.45
2023-05-15T03:48:02.714Z,9.73
2023-05-15T03:50:33.165Z,7.28
2023-05-15T03:55:33.299Z,5.50
2023-05-15T03:58:04.566Z,3.35
2023-05-15T04:00:38.917Z,5.97
2023-05-15T04:03:08.987Z,5.88
2023-05-15T04:05:39.222Z,7.15
2023-05-15T04:08:11.265Z,5.25
2023-05-15T04:10:41.657Z,5.68
2023-05-15T04:13:11.407Z,4.32
2023-05-15T04:15:42.545Z,4.35
2023-05-15T04:18:12.272Z,4.88
2023-05-15T04:20:42.944Z,3.40
2023-05-15T04:23:13.295Z,4.15
2023-05-15T04:25:48.140Z,3.15
2023-05-15T04:30:49.320Z,8.82
2023-05-15T04:33:20.054Z,5.85
2023-05-15T04:35:50.461Z,3.83
2023-05-15T04:40:54.638Z,5.80
2023-05-15T04:43:25.852Z,7.07
2023-05-15T04:45:57.116Z,3.50
2023-05-15T04:48:27.216Z,5.10
2023-05-15T04:53:26.697Z,4.47
2023-05-15T04:55:57.170Z,4.03
2023-05-15T04:58:28.868Z,4.40
2023-05-15T05:00:59.314Z,3.83
2023-05-15T05:03:30.573Z,4.72
2023-05-15T05:06:00.800Z,3.92
2023-05-15T05:08:32.001Z,4.43
2023-05-15T05:11:02.107Z,4.25
2023-05-15T05:13:31.825Z,5.32
2023-05-15T05:16:02.205Z,5.15
2023-05-15T05:18:37.780Z,5.65
2023-05-15T05:21:08.274Z,4.47
2023-05-15T05:23:38.911Z,4.15
2023-05-15T05:26:09.275Z,4.30
2023-05-15T05:31:09.913Z,4.47
2023-05-15T05:33:40.476Z,3.47
2023-05-15T05:36:10.571Z,6.00
2023-05-15T05:38:40.522Z,8.73
2023-05-15T05:43:40.648Z,5.05
2023-05-15T05:46:10.844Z,3.25
2023-05-15T05:48:41.019Z,7.82
2023-05-15T05:53:40.292Z,5.53
2023-05-15T05:56:10.624Z,8.85
2023-05-15T05:58:43.251Z,5.15
2023-05-15T06:01:13.510Z,3.28
2023-05-15T06:03:44.990Z,4.95
2023-05-15T06:06:15.636Z,8.38
2023-05-15T06:08:45.902Z,3.38
2023-05-15T06:11:16.317Z,6.63
2023-05-15T06:13:46.065Z,9.85
2023-05-15T06:16:16.152Z,6.20
2023-05-15T06:21:17.036Z,7.57
2023-05-15T06:23:46.991Z,3.55
2023-05-15T06:26:19.223Z,4.22
2023-05-15T06:28:49.772Z,3.83
2023-05-15T06:31:20.381Z,4.70
2023-05-15T06:33:50.967Z,3.65
2023-05-15T06:36:21.965Z,4.85
2023-05-15T06:38:53.035Z,3.10
2023-05-15T06:41:23.853Z,4.82
2023-05-15T06:43:53.564Z,7.80
2023-05-15T06:46:23.776Z,5.35
2023-05-15T06:51:23.704Z,4.50
2023-05-15T06:56:23.624Z,2.80
2023-05-15T06:58:53.323Z,2.95
2023-05-15T07:03:53.162Z,6.00
2023-05-15T07:06:24.204Z,4.63
2023-05-15T07:09:01.357Z,3.92
2023-05-15T07:11:32.205Z,5.07
2023-05-15T07:14:01.948Z,6.53
2023-05-15T07:16:32.718Z,4.25
2023-05-15T07:19:03.238Z,3.22
2023-05-15T07:21:33.821Z,5.38
2023-05-15T07:24:03.999Z,5.20
2023-05-15T07:26:41.026Z,5.40
2023-05-15T07:29:19.348Z,3.35
2023-05-15T07:31:49.445Z,4.40
2023-05-15T07:36:49.270Z,8.02
2023-05-15T07:41:49.957Z,3.15
2023-05-15T07:44:19.915Z,2.60
2023-05-15T07:46:49.663Z,3.55
2023-05-15T07:49:21.272Z,4.28
2023-05-15T07:51:52.119Z,3.35
2023-05-15T07:54:22.381Z,3.15
2023-05-15T07:56:52.290Z,3.85
2023-05-15T07:59:23.164Z,4.53
2023-05-15T08:01:53.720Z,4.45
2023-05-15T08:04:23.481Z,6.40
2023-05-15T08:06:53.592Z,8.15
2023-05-15T08:09:23.644Z,4.57
2023-05-15T08:11:58.779Z,3.30
2023-05-15T08:14:29.545Z,3.53
2023-05-15T08:16:59.787Z,3.45
2023-05-15T08:19:29.889Z,5.47
2023-05-15T08:22:00.002Z,7.40
2023-05-15T08:24:31.167Z,7.97
2023-05-15T08:27:01.857Z,4.78
2023-05-15T08:29:31.574Z,3.30
2023-05-15T08:32:02.697Z,2.42
2023-05-15T08:34:33.934Z,4.07
2023-05-15T08:37:04.249Z,4.18
2023-05-15T08:39:34.344Z,5.68
2023-05-15T08:42:15.553Z,3.08
2023-05-15T08:44:47.536Z,4.80
2023-05-15T08:47:21.358Z,7.65
2023-05-15T08:49:54.558Z,4.75
2023-05-15T08:52:26.739Z,4.65
2023-05-15T08:54:57.400Z,4.03
2023-05-15T08:57:29.494Z,5.53
2023-05-15T09:00:00.427Z,9.00
2023-05-15T09:02:31.437Z,4.50
2023-05-15T09:05:03.623Z,5.05
2023-05-15T09:07:34.267Z,3.72
2023-05-15T09:10:06.308Z,6.07
2023-05-15T09:12:37.936Z,7.07
2023-05-15T09:15:27.530Z,5.30
2023-05-15T09:17:58.464Z,9.65
2023-05-15T09:20:39.003Z,4.25
2023-05-15T09:23:27.956Z,3.50
2023-05-15T09:26:00.299Z,2.45
2023-05-15T09:28:38.300Z,3.42
2023-05-15T09:31:10.102Z,7.55
2023-05-15T09:33:46.432Z,4.60
2023-05-15T09:36:24.437Z,5.60
2023-05-15T09:39:01.419Z,9.68
2023-05-15T09:41:31.819Z,7.03
2023-05-15T09:46:40.362Z,6.75
2023-05-15T09:49:18.273Z,3.58
2023-05-15T09:51:51.845Z,3.47
2023-05-15T09:54:25.591Z,7.03
2023-05-15T09:56:55.966Z,14.65
2023-05-15T09:59:26.125Z,6.18
2023-05-15T10:01:56.337Z,5.20
2023-05-15T10:06:55.577Z,6.70
2023-05-15T10:09:33.623Z,9.05
2023-05-15T10:12:06.344Z,9.20
2023-05-15T10:14:37.829Z,6.55
2023-05-15T10:17:08.688Z,8.23
2023-05-15T10:19:47.203Z,7.25
2023-05-15T10:22:32.970Z,7.93
2023-05-15T10:25:15.390Z,8.15
2023-05-15T10:27:47.989Z,5.10
2023-05-15T10:30:18.384Z,7.45
2023-05-15T10:32:49.834Z,11.45
2023-05-15T10:35:20.920Z,5.97
2023-05-15T10:37:51.444Z,4.30
2023-05-15T10:40:21.596Z,5.80
2023-05-15T10:42:53.413Z,10.23
2023-05-15T10:45:23.828Z,17.58
2023-05-15T10:47:54.479Z,13.38
2023-05-15T10:50:24.976Z,12.25
2023-05-15T10:52:57.372Z,13.80
2023-05-15T10:55:27.916Z,14.13
2023-05-15T10:57:58.414Z,12.55
2023-05-15T11:00:34.743Z,40.70
2023-05-15T11:03:07.737Z,11.32
2023-05-15T11:06:13.856Z,10.55
2023-05-15T11:08:46.298Z,9.63
2023-05-15T11:11:56.891Z,15.43
2023-05-15T11:14:29.019Z,16.05
2023-05-15T11:17:05.089Z,14.15
2023-05-15T11:19:54.142Z,8.13
2023-05-15T11:22:33.714Z,15.73
2023-05-15T11:25:10.467Z,7.18
2023-05-15T11:27:46.040Z,19.48
2023-05-15T11:32:58.384Z,8.10
2023-05-15T11:35:35.554Z,12.30
2023-05-15T11:38:23.534Z,10.65
2023-05-15T11:43:37.744Z,10.68
2023-05-15T11:46:14.032Z,12.77
2023-05-15T11:51:23.618Z,8.13
2023-05-15T11:53:56.194Z,9.88
2023-05-15T11:56:31.419Z,12.88
2023-05-15T11:59:05.473Z,15.02
2023-05-15T12:01:49.432Z,8.13
2023-05-15T12:04:20.905Z,9.40
2023-05-15T12:06:53.189Z,12.90
2023-05-15T12:09:28.870Z,7.28
2023-05-15T12:11:59.280Z,11.02
2023-05-15T12:14:30.703Z,8.43
2023-05-15T12:17:06.033Z,12.23
2023-05-15T12:19:37.811Z,5.85
2023-05-15T12:22:09.598Z,7.22
2023-05-15T12:24:40.972Z,9.25
2023-05-15T12:27:12.033Z,11.18
2023-05-15T12:29:44.739Z,9.07
2023-05-15T12:32:15.493Z,7.90
2023-05-15T12:34:45.949Z,6.75
2023-05-15T12:37:16.858Z,7.55
2023-05-15T12:39:57.781Z,8.48
2023-05-15T12:42:28.350Z,6.00
2023-05-15T12:44:59.450Z,6.03
2023-05-15T12:47:30.707Z,9.60
2023-05-15T12:50:02.248Z,14.32
2023-05-15T12:52:33.178Z,14.27
2023-05-15T12:55:05.008Z,13.38
2023-05-15T12:57:37.328Z,11.23
2023-05-15T13:00:08.989Z,7.80
2023-05-15T13:02:41.901Z,9.63
2023-05-15T13:05:12.874Z,9.80
2023-05-15T13:07:47.199Z,7.35
2023-05-15T13:10:17.574Z,15.07
2023-05-15T13:12:48.091Z,15.52
2023-05-15T13:15:47.995Z,7.63
2023-05-15T13:20:55.805Z,9.02
2023-05-15T13:23:26.021Z,6.00
2023-05-15T13:25:56.509Z,9.90
2023-05-15T13:28:28.500Z,8.07
2023-05-15T13:30:58.579Z,8.18
2023-05-15T13:33:31.032Z,7.00
2023-05-15T13:36:01.946Z,9.23
2023-05-15T13:38:32.324Z,11.48
2023-05-15T13:41:02.284Z,12.55
2023-05-15T13:43:32.690Z,6.63
2023-05-15T13:46:02.588Z,9.20
2023-05-15T13:48:32.881Z,9.05
2023-05-15T13:51:03.931Z,14.02
2023-05-15T13:53:34.939Z,5.47
2023-05-15T13:56:05.116Z,10.65
2023-05-15T13:58:34.941Z,10.52
2023-05-15T14:01:08.530Z,7.00
2023-05-15T14:03:39.567Z,9.82
2023-05-15T14:06:10.479Z,5.57
2023-05-15T14:08:40.878Z,7.13
2023-05-15T14:11:10.623Z,6.47
2023-05-15T14:13:41.253Z,6.90
2023-05-15T14:16:11.981Z,6.88
2023-05-15T14:18:43.152Z,6.75
2023-05-15T14:21:13.312Z,8.45
2023-05-15T14:23:43.098Z,9.20
2023-05-15T14:26:14.944Z,16.27
2023-05-15T14:28:49.471Z,7.55
2023-05-15T14:31:19.459Z,14.27
2023-05-15T14:33:52.362Z,8.27
2023-05-15T14:36:22.794Z,9.27
2023-05-15T14:38:52.975Z,5.47
2023-05-15T14:41:24.876Z,8.65
2023-05-15T14:43:54.791Z,8.50
2023-05-15T14:46:24.649Z,7.47
2023-05-15T14:48:55.291Z,10.25
2023-05-15T14:51:25.927Z,8.57
2023-05-15T14:53:57.633Z,4.80
2023-05-15T14:56:28.146Z,6.72
2023-05-15T14:58:58.267Z,7.18
2023-05-15T15:01:29.885Z,5.63
2023-05-15T15:04:03.729Z,4.80
2023-05-15T15:06:33.847Z,5.50
2023-05-15T15:09:03.740Z,3.65
2023-05-15T15:20:38.512Z,5.03
2023-05-15T15:23:11.036Z,3.47
2023-05-15T15:25:41.576Z,2.92
2023-05-15T15:28:11.824Z,3.72
2023-05-15T15:30:43.582Z,6.53
2023-05-15T15:33:15.579Z,9.88
2023-05-15T15:35:47.549Z,3.88
2023-05-15T15:38:18.216Z,1.92
2023-05-15T15:40:49.064Z,1.65
2023-05-15T15:43:20.153Z,1.20
2023-05-15T15:45:51.646Z,5.25
2023-05-15T15:48:22.053Z,4.30
2023-05-15T15:50:54.663Z,2.45
2023-05-15T15:53:26.011Z,8.68
2023-05-15T15:55:57.293Z,4.30
2023-05-15T15:58:27.205Z,9.07
2023-05-15T16:00:57.110Z,10.90
2023-05-15T16:03:28.303Z,3.28
2023-05-15T16:06:00.053Z,4.32
2023-05-15T16:08:31.790Z,5.88
2023-05-15T16:11:02.339Z,4.05
2023-05-15T16:13:32.275Z,5.07
2023-05-15T16:16:03.300Z,3.17
2023-05-15T16:18:34.803Z,4.68
2023-05-15T16:21:06.028Z,3.75
2023-05-15T16:23:42.468Z,2.38
2023-05-15T16:26:13.597Z,5.63
2023-05-15T16:28:43.966Z,5.13
2023-05-15T16:31:15.305Z,5.63
2023-05-15T16:33:45.463Z,3.67
2023-05-15T16:36:15.940Z,3.75
2023-05-15T16:38:46.974Z,4.75
2023-05-15T16:41:16.896Z,3.13
2023-05-15T16:43:46.671Z,7.55
2023-05-15T16:46:17.245Z,5.15
2023-05-15T16:48:48.444Z,7.05
2023-05-15T16:51:19.013Z,1.98
2023-05-15T16:53:50.095Z,4.32
2023-05-15T16:56:20.296Z,5.03
2023-05-15T16:58:51.784Z,2.55
2023-05-15T17:01:22.355Z,3.55
2023-05-15T17:03:54.563Z,2.33
2023-05-15T17:06:25.056Z,2.38
2023-05-15T17:08:55.948Z,6.20
2023-05-15T17:11:26.789Z,5.78
2023-05-15T17:13:56.556Z,3.15
2023-05-15T17:16:26.587Z,3.30
2023-05-15T17:18:56.580Z,4.88
2023-05-15T17:21:27.801Z,6.28
2023-05-15T17:24:03.821Z,2.72
2023-05-15T17:26:34.184Z,3.40
2023-05-15T17:29:04.302Z,2.20
2023-05-15T17:31:36.980Z,1.52
2023-05-15T17:34:09.193Z,4.35
2023-05-15T17:36:39.110Z,3.13
2023-05-15T17:39:08.950Z,2.50
2023-05-15T17:41:40.017Z,5.05
2023-05-15T17:44:11.020Z,3.92
2023-05-15T17:46:43.504Z,9.75
2023-05-15T17:49:13.866Z,7.00
2023-05-15T17:51:44.176Z,3.30
2023-05-15T17:54:14.900Z,3.28
2023-05-15T17:56:47.310Z,2.65
2023-05-15T17:59:17.925Z,7.18
2023-05-15T18:01:48.780Z,5.07
2023-05-15T18:04:19.622Z,3.83
2023-05-15T18:06:51.741Z,5.07
2023-05-15T18:09:24.031Z,5.55
2023-05-15T18:11:55.070Z,2.67
2023-05-15T18:14:24.825Z,2.03
2023-05-15T18:16:56.433Z,2.33
2023-05-15T18:19:26.923Z,4.00
2023-05-15T18:21:58.611Z,2.20
2023-05-15T18:24:28.538Z,1.92
2023-05-15T18:26:58.365Z,5.30
2023-05-15T18:29:29.788Z,5.32
2023-05-15T18:32:00.052Z,4.55
2023-05-15T18:34:34.782Z,2.97
2023-05-15T18:37:04.998Z,5.18
2023-05-15T18:39:35.191Z,4.28
2023-05-15T18:42:06.697Z,3.17
2023-05-15T18:44:37.475Z,3.00
2023-05-15T18:47:07.500Z,2.67
2023-05-15T18:49:37.706Z,3.17
2023-05-15T18:52:08.617Z,7.97
2023-05-15T18:54:41.633Z,6.80
2023-05-15T18:57:11.913Z,5.00
2023-05-15T18:59:43.053Z,6.32
2023-05-15T19:02:14.436Z,9.65
2023-05-15T19:04:45.261Z,2.47
2023-05-15T19:07:15.282Z,3.35
2023-05-15T19:09:45.427Z,3.50
2023-05-15T19:12:15.700Z,5.07
2023-05-15T19:14:46.165Z,3.60
2023-05-15T19:17:17.914Z,6.88
2023-05-15T19:19:48.915Z,12.45
2023-05-15T19:22:19.459Z,8.98
2023-05-15T19:24:49.506Z,8.88
2023-05-15T19:27:20.600Z,4.18
2023-05-15T19:29:51.490Z,4.78
2023-05-15T19:32:21.874Z,4.18
2023-05-15T19:34:51.799Z,10.10
2023-05-15T19:37:22.169Z,4.93
2023-05-15T19:39:52.131Z,7.22
2023-05-15T19:42:22.284Z,3.92
2023-05-15T19:44:52.057Z,6.80
2023-05-15T19:47:22.262Z,8.05
2023-05-15T19:49:53.108Z,5.55
2023-05-15T19:52:25.577Z,6.13
2023-05-15T19:54:56.003Z,5.45
2023-05-15T19:57:27.050Z,9.27
2023-05-15T19:59:57.131Z,14.48
2023-05-15T20:02:27.928Z,4.18
2023-05-15T20:04:58.341Z,20.05
2023-05-15T20:07:28.325Z,14.25
2023-05-15T20:09:58.482Z,7.72
2023-05-15T20:12:30.465Z,9.48
2023-05-15T20:15:00.856Z,6.47
2023-05-15T20:17:31.148Z,8.73
2023-05-15T20:20:01.059Z,7.22
2023-05-15T20:22:32.698Z,5.65
2023-05-15T20:25:03.436Z,12.55
2023-05-15T20:27:33.291Z,7.30
2023-05-15T20:30:05.059Z,7.63
2023-05-15T20:32:35.407Z,12.35
2023-05-15T20:35:06.298Z,7.28
2023-05-15T20:37:41.637Z,14.18
2023-05-15T20:40:16.846Z,12.23
2023-05-15T20:42:47.137Z,10.18
2023-05-15T20:45:18.345Z,10.20
2023-05-15T20:47:50.673Z,13.18
2023-05-15T20:50:20.944Z,13.77
2023-05-15T20:52:50.951Z,10.07
2023-05-15T20:55:22.860Z,9.50
2023-05-15T20:57:53.650Z,6.43
2023-05-15T21:00:23.983Z,3.67
2023-05-15T21:02:57.227Z,9.20
2023-05-15T21:05:27.236Z,6.03
2023-05-15T21:07:57.919Z,7.53
2023-05-15T21:10:29.214Z,7.40
2023-05-15T21:13:00.055Z,16.80
2023-05-15T21:15:30.571Z,14.57
2023-05-15T21:18:00.867Z,16.85
2023-05-15T21:20:32.947Z,31.55
2023-05-15T21:23:05.100Z,32.72
2023-05-15T21:25:35.318Z,24.20
2023-05-15T21:28:07.112Z,21.10
2023-05-15T21:30:39.200Z,29.48
2023-05-15T21:33:09.520Z,26.63
2023-05-15T21:35:40.838Z,23.13
2023-05-15T21:38:12.345Z,11.40
2023-05-15T21:40:44.485Z,36.63
2023-05-15T21:43:15.131Z,14.77
2023-05-15T21:45:45.570Z,17.45
2023-05-15T21:48:17.131Z,38.03
2023-05-15T21:50:48.477Z,26.98
2023-05-15T21:53:18.660Z,30.65
2023-05-15T21:55:50.059Z,20.30
2023-05-15T21:58:21.182Z,17.98
2023-05-15T22:00:52.796Z,14.70
2023-05-15T22:03:23.384Z,7.63
2023-05-15T22:05:53.924Z,9.45
2023-05-15T22:08:24.575Z,5.32
2023-05-15T22:10:55.924Z,8.63
2023-05-15T22:13:26.204Z,9.70
2023-05-15T22:15:56.229Z,15.52
2023-05-15T22:18:28.258Z,11.80
2023-05-15T22:20:59.475Z,13.73
2023-05-15T22:23:29.609Z,9.98
2023-05-15T22:25:59.421Z,18.63
2023-05-15T22:28:31.650Z,16.50
2023-05-15T22:31:02.857Z,15.63
2023-05-15T22:33:33.063Z,23.52
2023-05-15T22:36:02.820Z,27.17
2023-05-15T22:38:33.018Z,26.92
2023-05-15T22:41:03.935Z,12.13
2023-05-15T22:43:35.979Z,15.98
2023-05-15T22:46:06.121Z,14.95
2023-05-15T22:48:37.688Z,17.90
2023-05-15T22:51:09.680Z,17.02
2023-05-15T22:53:40.661Z,20.45
2023-05-15T22:56:10.822Z,18.45
2023-05-15T22:58:40.632Z,8.30
2023-05-15T23:01:12.306Z,15.63
2023-05-15T23:03:43.701Z,17.33
2023-05-15T23:06:24.568Z,15.82
2023-05-15T23:08:54.529Z,13.40
2023-05-15T23:11:26.138Z,22.20
2023-05-15T23:13:57.834Z,6.88
2023-05-15T23:16:28.911Z,16.25
2023-05-15T23:19:00.408Z,7.40
2023-05-15T23:21:30.643Z,10.02
2023-05-15T23:24:01.970Z,18.30
2023-05-15T23:26:33.240Z,14.98
2023-05-15T23:29:03.389Z,19.50
2023-05-15T23:31:35.375Z,17.60
2023-05-15T23:34:07.347Z,12.80
2023-05-15T23:36:39.841Z,14.73
2023-05-15T23:39:10.281Z,12.52
2023-05-15T23:41:41.754Z,10.48
2023-05-15T23:44:12.705Z,6.60
2023-05-15T23:46:43.539Z,8.57
2023-05-15T23:49:14.122Z,8.68
2023-05-15T23:51:45.311Z,9.90
2023-05-15T23:54:17.103Z,19.80
2023-05-15T23:56:49.881Z,14.50
2023-05-15T23:59:20.233Z,9.35
